createdAt,value
2017-04-27T00:00:36.083Z,0.61
2017-04-27T00:01:57.923Z,0.6
2017-04-27T00:03:19.756Z,0.61
2017-04-27T00:04:41.918Z,0.6
2017-04-27T00:06:03.813Z,0.66
2017-04-27T00:07:25.340Z,0.6
2017-04-27T00:08:47.482Z,0.7
2017-04-27T00:10:09.619Z,0.62
2017-04-27T00:11:32.428Z,0.66
2017-04-27T00:12:53.938Z,0.7
2017-04-27T00:14:16.390Z,0.72
2017-04-27T00:15:38.214Z,0.55
2017-04-27T00:17:00.649Z,0.66
2017-04-27T00:18:22.159Z,0.6
2017-04-27T00:19:43.978Z,0.6
2017-04-27T00:21:05.155Z,0.55
2017-04-27T00:22:27.569Z,0.62
2017-04-27T00:23:49.876Z,0.72
2017-04-27T00:25:11.728Z,0.58
2017-04-27T00:26:32.921Z,0.68
2017-04-27T00:27:55.740Z,0.75
2017-04-27T00:29:18.202Z,0.58
2017-04-27T00:30:40.719Z,0.6
2017-04-27T00:32:02.552Z,0.6
2017-04-27T00:33:25.066Z,0.58
2017-04-27T00:34:47.529Z,0.53
2017-04-27T00:36:09.425Z,0.62
2017-04-27T00:37:31.556Z,0.6
2017-04-27T00:38:54.040Z,0.62
2017-04-27T00:40:15.550Z,0.53
2017-04-27T00:41:37.771Z,0.55
2017-04-27T00:43:00.232Z,0.58
2017-04-27T00:44:23.049Z,0.5
2017-04-27T00:45:44.879Z,0.47
2017-04-27T00:47:06.079Z,0.44
2017-04-27T00:48:27.902Z,0.51
2017-04-27T00:49:50.600Z,0.47
2017-04-27T00:51:12.098Z,0.47
2017-04-27T00:52:33.289Z,0.53
2017-04-27T00:53:54.831Z,0.5
2017-04-27T00:55:17.509Z,0.53
2017-04-27T00:56:39.364Z,0.5
2017-04-27T00:58:00.617Z,0.42
2017-04-27T00:59:22.447Z,0.46
2017-04-27T01:00:44.838Z,0.41
2017-04-27T01:02:07.041Z,0.35
2017-04-27T01:03:29.174Z,0.33
2017-04-27T01:04:50.688Z,0.23
2017-04-27T01:06:12.538Z,0.2
2017-04-27T01:07:33.734Z,0.14
2017-04-27T01:08:55.953Z,0.1
2017-04-27T01:10:17.794Z,0.13
2017-04-27T01:11:39.999Z,0.14
2017-04-27T01:13:02.140Z,0.17
2017-04-27T01:14:23.324Z,0.11
2017-04-27T01:15:45.511Z,0.04
2017-04-27T01:17:08.004Z,0.15
2017-04-27T01:18:29.828Z,0.07
2017-04-27T01:19:51.338Z,0.13
2017-04-27T01:21:13.152Z,0.08
2017-04-27T01:22:34.974Z,0.11
2017-04-27T01:23:56.877Z,0.1
2017-04-27T01:25:19.378Z,0.04
2017-04-27T01:26:41.509Z,0.08
2017-04-27T01:28:03.579Z,0.04
2017-04-27T01:29:25.438Z,0.03
2017-04-27T01:30:47.308Z,0.07
2017-04-27T01:32:09.135Z,0
2017-04-27T01:33:30.950Z,0.08
2017-04-27T01:34:52.870Z,0.04
2017-04-27T01:36:14.685Z,0.04
2017-04-27T01:37:36.816Z,0.1
2017-04-27T01:38:59.290Z,0.08
2017-04-27T01:40:21.111Z,0.03
2017-04-27T01:41:43.258Z,0.04
2017-04-27T01:43:05.507Z,0.02
2017-04-27T01:44:27.627Z,0.11
2017-04-27T01:45:49.149Z,0.1
2017-04-27T01:47:10.988Z,0.07
2017-04-27T01:48:32.217Z,0.1
2017-04-27T01:49:54.324Z,0
2017-04-27T01:51:15.837Z,0.03
2017-04-27T01:52:37.407Z,0.04
2017-04-27T01:53:59.868Z,0.02
2017-04-27T01:55:22.375Z,0.1
2017-04-27T01:56:43.883Z,0.08
2017-04-27T01:58:06.048Z,0.08
2017-04-27T01:59:27.240Z,0.13
2017-04-27T02:00:49.408Z,0.04
2017-04-27T02:02:11.537Z,0
2017-04-27T02:03:32.723Z,-0.07
2017-04-27T02:04:54.674Z,-0.04
2017-04-27T02:06:16.859Z,-0.11
2017-04-27T02:07:38.376Z,-0.14
2017-04-27T02:09:00.848Z,-0.07
2017-04-27T02:10:22.715Z,-0.04
2017-04-27T02:11:44.526Z,-0.01
2017-04-27T02:13:06.122Z,0.02
2017-04-27T02:14:27.637Z,-0.08
2017-04-27T02:15:49.838Z,-0.16
2017-04-27T02:17:11.941Z,-0.15
2017-04-27T02:18:33.126Z,-0.14
2017-04-27T02:19:55.588Z,-0.07
2017-04-27T02:21:17.726Z,-0.01
2017-04-27T02:22:39.587Z,-0.05
2017-04-27T02:24:01.703Z,-0.04
2017-04-27T02:25:23.318Z,-0.05
2017-04-27T02:26:45.143Z,-0.11
2017-04-27T02:28:07.543Z,-0.11
2017-04-27T02:29:30.008Z,-0.1
2017-04-27T02:30:52.154Z,-0.11
2017-04-27T02:32:13.658Z,-0.14
2017-04-27T02:33:35.445Z,-0.1
2017-04-27T02:34:56.991Z,-0.1
2017-04-27T02:36:18.807Z,-0.15
2017-04-27T02:37:40.626Z,-0.18
2017-04-27T02:39:02.701Z,-0.14
2017-04-27T02:40:24.520Z,-0.22
2017-04-27T02:41:46.077Z,-0.11
2017-04-27T02:43:07.925Z,-0.16
2017-04-27T02:44:29.706Z,-0.16
2017-04-27T02:45:52.148Z,-0.16
2017-04-27T02:47:13.970Z,-0.1
2017-04-27T02:48:35.798Z,-0.14
2017-04-27T02:49:58.287Z,-0.14
2017-04-27T02:51:19.825Z,-0.04
2017-04-27T02:52:41.967Z,-0.11
2017-04-27T02:54:03.173Z,-0.18
2017-04-27T02:55:25.050Z,-0.15
2017-04-27T02:56:46.887Z,-0.22
2017-04-27T02:58:08.220Z,-0.22
2017-04-27T02:59:30.377Z,-0.14
2017-04-27T03:00:52.598Z,-0.1
2017-04-27T03:02:14.965Z,-0.25
2017-04-27T03:03:36.490Z,-0.15
2017-04-27T03:04:58.299Z,-0.14
2017-04-27T03:06:20.367Z,-0.11
2017-04-27T03:07:41.237Z,-0.16
2017-04-27T03:09:02.779Z,-0.16
2017-04-27T03:10:24.275Z,-0.07
2017-04-27T03:11:46.135Z,-0.15
2017-04-27T03:13:07.628Z,-0.14
2017-04-27T03:14:29.649Z,-0.08
2017-04-27T03:15:51.846Z,-0.14
2017-04-27T03:17:14.237Z,-0.1
2017-04-27T03:18:36.099Z,-0.1
2017-04-27T03:19:58.557Z,-0.14
2017-04-27T03:21:20.375Z,-0.14
2017-04-27T03:22:42.445Z,-0.18
2017-04-27T03:24:04.907Z,-0.14
2017-04-27T03:25:27.042Z,-0.16
2017-04-27T03:26:48.580Z,-0.15
2017-04-27T03:28:11.135Z,-0.15
2017-04-27T03:29:33.305Z,-0.14
2017-04-27T03:30:55.595Z,-0.18
2017-04-27T03:32:17.424Z,-0.21
2017-04-27T03:33:39.544Z,-0.23
2017-04-27T03:35:01.519Z,-0.18
2017-04-27T03:36:23.071Z,-0.28
2017-04-27T03:37:45.211Z,-0.23
2017-04-27T03:39:06.973Z,-0.31
2017-04-27T03:40:28.808Z,-0.29
2017-04-27T03:41:50.328Z,-0.31
2017-04-27T03:43:12.155Z,-0.43
2017-04-27T03:44:34.643Z,-0.31
2017-04-27T03:45:56.787Z,-0.36
2017-04-27T03:47:18.310Z,-0.31
2017-04-27T03:48:40.154Z,-0.26
2017-04-27T03:50:02.016Z,-0.28
2017-04-27T03:51:23.880Z,-0.34
2017-04-27T03:52:46.025Z,-0.22
2017-04-27T03:54:07.856Z,-0.26
2017-04-27T03:55:30.248Z,-0.14
2017-04-27T03:56:52.829Z,-0.18
2017-04-27T03:58:14.792Z,-0.19
2017-04-27T03:59:36.698Z,-0.14
2017-04-27T04:00:59.078Z,-0.23
2017-04-27T04:02:21.237Z,-0.19
2017-04-27T04:03:43.577Z,-0.28
2017-04-27T04:05:05.397Z,-0.21
2017-04-27T04:06:28.005Z,-0.14
2017-04-27T04:07:49.183Z,-0.18
2017-04-27T04:09:11.318Z,-0.18
2017-04-27T04:10:32.518Z,-0.16
2017-04-27T04:11:55.020Z,-0.25
2017-04-27T04:13:16.927Z,-0.15
2017-04-27T04:14:39.163Z,-0.1
2017-04-27T04:16:01.594Z,-0.15
2017-04-27T04:17:24.319Z,-0.1
2017-04-27T04:18:46.457Z,-0.08
2017-04-27T04:20:08.280Z,-0.04
2017-04-27T04:21:29.785Z,0.02
2017-04-27T04:22:51.545Z,0.08
2017-04-27T04:24:13.698Z,0.14
2017-04-27T04:25:35.840Z,0.13
2017-04-27T04:26:57.659Z,0.33
2017-04-27T04:28:20.269Z,0.39
2017-04-27T04:29:42.091Z,0.33
2017-04-27T04:31:04.240Z,0.49
2017-04-27T04:32:26.078Z,0.46
2017-04-27T04:33:48.265Z,0.49
2017-04-27T04:35:09.799Z,0.55
2017-04-27T04:36:31.643Z,0.58
2017-04-27T04:37:53.777Z,0.57
2017-04-27T04:39:16.165Z,0.49
2017-04-27T04:40:37.996Z,0.66
2017-04-27T04:41:59.537Z,0.73
2017-04-27T04:43:22.028Z,0.6
2017-04-27T04:44:43.832Z,0.69
2017-04-27T04:46:05.966Z,0.8
2017-04-27T04:47:28.161Z,0.76
2017-04-27T04:48:50.625Z,0.94
2017-04-27T04:50:13.210Z,0.88
2017-04-27T04:51:35.158Z,0.91
2017-04-27T04:52:57.327Z,1
2017-04-27T04:54:19.468Z,1.12
2017-04-27T04:55:41.868Z,1.2
2017-04-27T04:57:03.354Z,1.26
2017-04-27T04:58:25.618Z,1.27
2017-04-27T04:59:47.489Z,1.36
2017-04-27T05:01:09.487Z,1.45
2017-04-27T05:02:30.999Z,1.48
2017-04-27T05:03:52.823Z,1.58
2017-04-27T05:05:14.957Z,1.65
2017-04-27T05:06:37.027Z,1.77
2017-04-27T05:07:58.527Z,1.79
2017-04-27T05:09:20.694Z,1.91
2017-04-27T05:10:42.617Z,1.95
2017-04-27T05:12:05.363Z,2.18
2017-04-27T05:13:26.881Z,2.21
2017-04-27T05:14:49.468Z,2.36
2017-04-27T05:16:11.667Z,2.53
2017-04-27T05:17:34.467Z,2.57
2017-04-27T05:18:56.939Z,2.9
2017-04-27T05:20:19.417Z,3.2
2017-04-27T05:21:41.878Z,4.36
2017-04-27T05:23:04.284Z,6.37
2017-04-27T05:24:26.416Z,8.55
2017-04-27T05:25:48.556Z,10.18
2017-04-27T05:27:10.379Z,11.62
2017-04-27T05:28:33.230Z,12.32
2017-04-27T05:29:55.391Z,12.6
2017-04-27T05:31:17.599Z,13.39
2017-04-27T05:32:39.752Z,14.4
2017-04-27T05:34:02.314Z,15.69
2017-04-27T05:35:24.467Z,16.75
2017-04-27T05:36:46.664Z,17.55
2017-04-27T05:38:07.878Z,17.84
2017-04-27T05:39:30.282Z,18.29
2017-04-27T05:40:52.424Z,18.87
2017-04-27T05:42:14.259Z,19.68
2017-04-27T05:43:36.110Z,20.29
2017-04-27T05:44:58.269Z,20.55
2017-04-27T05:46:20.101Z,19.95
2017-04-27T05:47:42.248Z,19.06
2017-04-27T05:49:04.108Z,18.65
2017-04-27T05:50:26.890Z,19.18
2017-04-27T05:51:48.718Z,19.07
2017-04-27T05:53:10.558Z,18.5
2017-04-27T05:54:32.183Z,17.56
2017-04-27T05:55:54.568Z,17.14
2017-04-27T05:57:16.732Z,17.55
2017-04-27T05:58:37.953Z,17.89
2017-04-27T05:59:59.874Z,18.55
2017-04-27T06:01:22.399Z,19.08
2017-04-27T06:02:44.576Z,19.61
2017-04-27T06:04:06.424Z,20.33
2017-04-27T06:05:28.695Z,21.17
2017-04-27T06:06:51.159Z,22.2
2017-04-27T06:08:13.378Z,22.77
2017-04-27T06:09:35.231Z,22.97
2017-04-27T06:10:56.737Z,22.64
2017-04-27T06:12:18.730Z,22.86
2017-04-27T06:13:41.308Z,22.94
2017-04-27T06:15:03.146Z,23
2017-04-27T06:16:24.358Z,23.25
2017-04-27T06:17:46.865Z,23.95
2017-04-27T06:19:09.340Z,23.75
2017-04-27T06:20:31.185Z,24.27
2017-04-27T06:21:53.361Z,24.05
2017-04-27T06:23:15.889Z,24.06
2017-04-27T06:24:37.770Z,24.02
2017-04-27T06:25:59.949Z,24.28
2017-04-27T06:27:22.317Z,24.35
2017-04-27T06:28:43.832Z,24.42
2017-04-27T06:30:05.697Z,24.81
2017-04-27T06:31:28.102Z,24.84
2017-04-27T06:32:50.599Z,24.55
2017-04-27T06:34:12.873Z,24.37
2017-04-27T06:35:34.895Z,24.3
2017-04-27T06:36:56.790Z,24
2017-04-27T06:38:18.945Z,22.49
2017-04-27T06:39:41.610Z,22.46
2017-04-27T06:41:04.206Z,22.83
2017-04-27T06:42:26.369Z,23.48
2017-04-27T06:43:48.579Z,23.84
2017-04-27T06:45:10.719Z,24.45
2017-04-27T06:46:32.590Z,24.73
2017-04-27T06:47:54.767Z,25.03
2017-04-27T06:49:16.946Z,25.28
2017-04-27T06:50:39.189Z,25.79
2017-04-27T06:52:01.099Z,26.28
2017-04-27T06:53:23.363Z,26.88
2017-04-27T06:54:45.245Z,27.24
2017-04-27T06:56:06.730Z,27.25
2017-04-27T06:57:28.917Z,27.85
2017-04-27T06:58:50.748Z,27.82
2017-04-27T07:00:12.976Z,27.02
2017-04-27T07:01:35.598Z,25.6
2017-04-27T07:02:57.182Z,23.2
2017-04-27T07:04:18.705Z,21.38
2017-04-27T07:05:40.950Z,21.71
2017-04-27T07:07:03.139Z,22.95
2017-04-27T07:08:25.631Z,23.76
2017-04-27T07:09:47.506Z,25.1
2017-04-27T07:11:10.066Z,25.6
2017-04-27T07:12:32.158Z,24.34
2017-04-27T07:13:54.299Z,24.08
2017-04-27T07:15:15.828Z,23.93
2017-04-27T07:16:37.680Z,21.74
2017-04-27T07:17:59.914Z,20.17
2017-04-27T07:19:21.458Z,18.69
2017-04-27T07:20:42.661Z,17.22
2017-04-27T07:22:04.197Z,16.09
2017-04-27T07:23:26.369Z,15.69
2017-04-27T07:24:48.518Z,15.57
2017-04-27T07:26:10.678Z,15.44
2017-04-27T07:27:32.900Z,15.19
2017-04-27T07:28:55.368Z,15.39
2017-04-27T07:30:17.009Z,15.71
2017-04-27T07:31:39.168Z,15.25
2017-04-27T07:33:00.577Z,14.84
2017-04-27T07:34:22.780Z,14.55
2017-04-27T07:35:44.836Z,14.43
2017-04-27T07:37:06.368Z,15.34
2017-04-27T07:38:28.543Z,17.15
2017-04-27T07:39:50.734Z,17.66
2017-04-27T07:41:12.884Z,17.56
2017-04-27T07:42:35.367Z,18.29
2017-04-27T07:43:57.560Z,19.95
2017-04-27T07:45:20.063Z,20.23
2017-04-27T07:46:41.897Z,20.62
2017-04-27T07:48:03.916Z,20.21
2017-04-27T07:49:26.088Z,20.39
2017-04-27T07:50:48.259Z,21.24
2017-04-27T07:52:10.543Z,21.34
2017-04-27T07:53:32.376Z,20.69
2017-04-27T07:54:54.239Z,20.76
2017-04-27T07:56:16.797Z,20.8
2017-04-27T07:57:38.989Z,20.18
2017-04-27T07:59:00.886Z,19.25
2017-04-27T08:00:23.201Z,18.03
2017-04-27T08:01:45.289Z,17.21
2017-04-27T08:03:07.504Z,16.34
2017-04-27T08:04:29.688Z,15.36
2017-04-27T08:05:51.928Z,14.35
2017-04-27T08:07:14.330Z,13.7
2017-04-27T08:08:36.807Z,13.48
2017-04-27T08:09:58.028Z,12.72
2017-04-27T08:11:20.518Z,12.46
2017-04-27T08:12:43.267Z,12.28
2017-04-27T08:14:05.165Z,12.27
2017-04-27T08:15:26.371Z,12.31
2017-04-27T08:16:48.245Z,12.45
2017-04-27T08:18:10.904Z,12.5
2017-04-27T08:19:32.880Z,12.7
2017-04-27T08:20:54.815Z,12.82
2017-04-27T08:22:16.977Z,12.79
2017-04-27T08:23:39.497Z,12.95
2017-04-27T08:25:01.656Z,13.3
2017-04-27T08:26:23.801Z,13.48
2017-04-27T08:27:45.315Z,13.45
2017-04-27T08:29:07.823Z,13.77
2017-04-27T08:30:29.698Z,13.87
2017-04-27T08:31:51.526Z,13.79
2017-04-27T08:33:13.354Z,13.52
2017-04-27T08:34:35.190Z,13.19
2017-04-27T08:35:56.768Z,13.2
2017-04-27T08:37:18.655Z,13.33
2017-04-27T08:38:41.155Z,13.26
2017-04-27T08:40:02.913Z,13.48
2017-04-27T08:41:24.871Z,13.78
2017-04-27T08:42:46.399Z,14.06
2017-04-27T08:44:08.888Z,13.64
2017-04-27T08:45:31.708Z,13.38
2017-04-27T08:46:53.880Z,13.32
2017-04-27T08:48:16.210Z,13.1
2017-04-27T08:49:38.047Z,12.54
2017-04-27T08:50:59.869Z,12.41
2017-04-27T08:52:22.368Z,12.24
2017-04-27T08:53:44.858Z,12.16
2017-04-27T08:55:07.024Z,12.1
2017-04-27T08:56:29.218Z,12.16
2017-04-27T08:57:51.388Z,12.16
2017-04-27T08:59:13.789Z,12.32
2017-04-27T09:00:35.324Z,12.52
2017-04-27T09:01:57.489Z,12.64
2017-04-27T09:03:19.639Z,12.85
2017-04-27T09:04:41.784Z,12.87
2017-04-27T09:06:03.000Z,13.08
2017-04-27T09:07:24.800Z,13.1
2017-04-27T09:08:47.296Z,13.14
2017-04-27T09:10:08.819Z,13.33
2017-04-27T09:11:30.447Z,13.3
2017-04-27T09:12:51.787Z,13.32
2017-04-27T09:14:14.262Z,13.51
2017-04-27T09:15:36.758Z,13.42
2017-04-27T09:16:59.233Z,13.55
2017-04-27T09:18:21.788Z,13.59
2017-04-27T09:19:43.697Z,13.81
2017-04-27T09:21:06.188Z,14.07
2017-04-27T09:22:28.127Z,14.37
2017-04-27T09:23:50.396Z,14.73
2017-04-27T09:25:12.257Z,14.46
2017-04-27T09:26:34.417Z,14.17
2017-04-27T09:27:56.566Z,14.03
2017-04-27T09:29:18.760Z,13.54
2017-04-27T09:30:41.583Z,13.2
2017-04-27T09:32:03.559Z,13.03
2017-04-27T09:33:25.737Z,13.2
2017-04-27T09:34:48.558Z,13.52
2017-04-27T09:36:10.409Z,13.89
2017-04-27T09:37:32.879Z,14.14
2017-04-27T09:38:55.226Z,14.21
2017-04-27T09:40:17.418Z,14.21
2017-04-27T09:41:39.358Z,14.32
2017-04-27T09:43:01.517Z,14.37
2017-04-27T09:44:23.397Z,14.35
2017-04-27T09:45:45.807Z,14.86
2017-04-27T09:47:08.096Z,15.06
2017-04-27T09:48:29.936Z,15.51
2017-04-27T09:49:51.907Z,15.75
2017-04-27T09:51:14.303Z,15.47
2017-04-27T09:52:36.163Z,15.64
2017-04-27T09:53:57.896Z,15.69
2017-04-27T09:55:19.748Z,15.76
2017-04-27T09:56:42.208Z,15.67
2017-04-27T09:58:04.400Z,15.54
2017-04-27T09:59:26.255Z,15.53
2017-04-27T10:00:48.096Z,15.59
2017-04-27T10:02:10.586Z,15.51
2017-04-27T10:03:32.768Z,15.41
2017-04-27T10:04:54.998Z,15.41
2017-04-27T10:06:17.621Z,15.44
2017-04-27T10:07:39.627Z,15.21
2017-04-27T10:09:00.829Z,15.2
2017-04-27T10:10:23.038Z,15.01
2017-04-27T10:11:45.185Z,14.72
2017-04-27T10:13:07.698Z,14.33
2017-04-27T10:14:29.854Z,14.12
2017-04-27T10:15:51.690Z,14.06
2017-04-27T10:17:13.956Z,14.1
2017-04-27T10:18:36.597Z,14.22
2017-04-27T10:19:58.851Z,14.39
2017-04-27T10:21:20.700Z,14.4
2017-04-27T10:22:42.586Z,14.62
2017-04-27T10:24:04.438Z,14.65
2017-04-27T10:25:26.597Z,14.4
2017-04-27T10:26:48.444Z,14.36
2017-04-27T10:28:41.977Z,14.39
2017-04-27T10:30:04.428Z,14.54
2017-04-27T10:31:26.608Z,14.58
2017-04-27T10:32:48.446Z,14.64
2017-04-27T10:34:10.327Z,14.62
2017-04-27T10:35:32.845Z,14.29
2017-04-27T10:36:55.009Z,14.17
2017-04-27T10:38:17.178Z,14.06
2017-04-27T10:39:38.709Z,14.22
2017-04-27T10:41:01.172Z,14.35
2017-04-27T10:42:23.334Z,14.25
2017-04-27T10:43:45.664Z,14.02
2017-04-27T10:45:07.556Z,13.67
2017-04-27T10:46:30.339Z,13.38
2017-04-27T10:47:52.537Z,13.12
2017-04-27T10:49:14.116Z,12.82
2017-04-27T10:50:36.668Z,12.53
2017-04-27T10:51:59.417Z,12.27
2017-04-27T10:53:21.637Z,11.99
2017-04-27T10:54:43.479Z,11.91
2017-04-27T10:56:05.958Z,11.78
2017-04-27T10:57:28.132Z,11.73
2017-04-27T10:58:50.380Z,11.67
2017-04-27T11:00:12.851Z,11.64
2017-04-27T11:01:35.299Z,11.86
2017-04-27T11:02:57.808Z,11.95
2017-04-27T11:04:19.648Z,11.76
2017-04-27T11:05:41.471Z,11.75
2017-04-27T11:07:03.323Z,11.7
2017-04-27T11:08:25.486Z,11.95
2017-04-27T11:09:47.697Z,12.16
2017-04-27T11:11:09.268Z,12.12
2017-04-27T11:12:31.735Z,12.1
2017-04-27T11:13:53.937Z,12.23
2017-04-27T11:15:16.488Z,12.21
2017-04-27T11:16:38.307Z,12.02
2017-04-27T11:17:59.610Z,12.05
2017-04-27T11:19:22.051Z,12.14
2017-04-27T11:20:43.931Z,12.12
2017-04-27T11:22:06.401Z,12.23
2017-04-27T11:23:34.861Z,12.46
2017-04-27T11:24:57.881Z,12.67
2017-04-27T11:26:20.031Z,12.92
2017-04-27T11:27:42.200Z,13.07
2017-04-27T11:29:04.125Z,13.17
2017-04-27T11:30:26.580Z,13.03
2017-04-27T11:31:48.097Z,12.85
2017-04-27T11:33:10.268Z,12.87
2017-04-27T11:34:32.116Z,13.05
2017-04-27T11:35:54.665Z,13.32
2017-04-27T11:37:16.197Z,13.48
2017-04-27T11:39:09.475Z,13.75
2017-04-27T11:40:31.539Z,13.95
2017-04-27T11:41:54.067Z,14.15
2017-04-27T11:43:16.258Z,14.32
2017-04-27T11:44:38.118Z,14.29
2017-04-27T11:46:00.668Z,14.47
2017-04-27T11:47:23.404Z,14.47
2017-04-27T11:48:45.315Z,14.55
2017-04-27T11:50:07.887Z,14.69
2017-04-27T11:51:29.736Z,14.54
2017-04-27T11:52:51.693Z,14.24
2017-04-27T11:54:13.559Z,14.04
2017-04-27T11:55:36.062Z,13.7
2017-04-27T11:56:58.194Z,13.25
2017-04-27T11:58:20.627Z,13.03
2017-04-27T11:59:42.849Z,12.42
2017-04-27T12:01:05.137Z,12.14
2017-04-27T12:02:26.715Z,12.07
2017-04-27T12:03:49.557Z,11.96
2017-04-27T12:05:11.727Z,11.99
2017-04-27T12:06:34.124Z,12.21
2017-04-27T12:07:56.174Z,12.27
2017-04-27T12:09:18.261Z,12.5
2017-04-27T12:10:40.762Z,12.86
2017-04-27T12:12:02.606Z,13.15
2017-04-27T12:13:24.226Z,13.54
2017-04-27T12:14:46.680Z,13.57
2017-04-27T12:16:08.835Z,13.75
2017-04-27T12:17:31.016Z,14.22
2017-04-27T12:18:52.871Z,14.37
2017-04-27T12:20:15.802Z,14.55
2017-04-27T12:21:38.370Z,14.77
2017-04-27T12:23:00.283Z,14.02
2017-04-27T12:24:21.819Z,12.01
2017-04-27T12:25:44.596Z,12.2
2017-04-27T12:27:06.743Z,11.9
2017-04-27T12:28:28.918Z,11.7
2017-04-27T12:29:51.115Z,11.61
2017-04-27T12:31:14.018Z,11.99
2017-04-27T12:32:36.220Z,12.32
2017-04-27T12:33:58.639Z,12.5
2017-04-27T12:35:20.837Z,12.54
2017-04-27T12:36:43.590Z,11.83
2017-04-27T12:38:06.162Z,11.32
2017-04-27T12:39:28.356Z,11.47
2017-04-27T12:40:50.202Z,10.71
2017-04-27T12:42:13.007Z,11.07
2017-04-27T12:43:35.397Z,11.22
2017-04-27T12:44:57.288Z,11.14
2017-04-27T12:46:18.824Z,10.92
2017-04-27T12:47:41.020Z,11.21
2017-04-27T12:49:02.950Z,11.29
2017-04-27T12:50:25.106Z,11.27
2017-04-27T12:51:47.260Z,11.1
2017-04-27T12:53:09.789Z,11.11
2017-04-27T12:54:31.953Z,10.89
2017-04-27T12:55:54.520Z,10.78
2017-04-27T12:57:16.733Z,10.88
2017-04-27T12:58:39.037Z,10.92
2017-04-27T13:00:01.198Z,10.86
2017-04-27T13:01:23.275Z,10.76
2017-04-27T13:02:45.871Z,10.73
2017-04-27T13:04:08.288Z,10.78
2017-04-27T13:05:30.469Z,10.67
2017-04-27T13:06:52.956Z,10.61
2017-04-27T13:08:15.140Z,10.66
2017-04-27T13:09:37.013Z,10.88
2017-04-27T13:10:59.174Z,11.07
2017-04-27T13:12:21.008Z,11.15
2017-04-27T13:13:43.163Z,11.29
2017-04-27T13:15:05.666Z,11.49
2017-04-27T13:16:27.845Z,11.67
2017-04-27T13:17:50.318Z,11.88
2017-04-27T13:19:12.473Z,12.02
2017-04-27T13:20:34.045Z,12.32
2017-04-27T13:21:56.218Z,12.52
2017-04-27T13:23:18.376Z,12.59
2017-04-27T13:24:40.553Z,12.59
2017-04-27T13:26:03.028Z,12.67
2017-04-27T13:27:25.201Z,12.75
2017-04-27T13:28:47.383Z,12.71
2017-04-27T13:30:09.531Z,12.77
2017-04-27T13:31:32.058Z,12.79
2017-04-27T13:32:53.584Z,12.86
2017-04-27T13:34:16.045Z,12.54
2017-04-27T13:35:38.249Z,12.42
2017-04-27T13:37:00.813Z,12.5
2017-04-27T13:38:22.973Z,12.41
2017-04-27T13:39:44.878Z,12.56
2017-04-27T13:41:07.409Z,12.54
2017-04-27T13:42:30.213Z,12.78
2017-04-27T13:43:52.777Z,12.9
2017-04-27T13:45:14.632Z,13.07
2017-04-27T13:46:37.118Z,13.11
2017-04-27T13:47:59.257Z,13.28
2017-04-27T13:49:21.472Z,13.39
2017-04-27T13:50:43.664Z,13.55
2017-04-27T13:52:05.514Z,13.79
2017-04-27T13:53:27.993Z,13.87
2017-04-27T13:54:49.819Z,13.78
2017-04-27T13:56:12.036Z,13.7
2017-04-27T13:57:33.884Z,13.7
2017-04-27T13:58:56.697Z,13.57
2017-04-27T14:00:18.851Z,13.73
2017-04-27T14:01:41.008Z,13.6
2017-04-27T14:03:03.510Z,13.97
2017-04-27T14:04:26.327Z,14.22
2017-04-27T14:05:48.487Z,14.32
2017-04-27T14:07:10.067Z,14.12
2017-04-27T14:08:32.578Z,13.7
2017-04-27T14:09:54.805Z,13.6
2017-04-27T14:11:16.945Z,13.46
2017-04-27T14:12:39.175Z,13.55
2017-04-27T14:14:01.688Z,13.46
2017-04-27T14:15:24.150Z,13.52
2017-04-27T14:16:46.713Z,13.57
2017-04-27T14:18:08.968Z,13.75
2017-04-27T14:19:31.168Z,13.84
2017-04-27T14:20:53.579Z,14.14
2017-04-27T14:22:16.115Z,14.28
2017-04-27T14:23:38.300Z,14.28
2017-04-27T14:25:00.498Z,14.28
2017-04-27T14:26:22.938Z,14.33
2017-04-27T14:27:45.415Z,14.27
2017-04-27T14:29:07.608Z,14.33
2017-04-27T14:30:30.175Z,14.47
2017-04-27T14:31:52.852Z,14.51
2017-04-27T14:33:15.441Z,14.61
2017-04-27T14:34:37.992Z,14.69
2017-04-27T14:35:59.857Z,15.01
2017-04-27T14:37:22.411Z,14.86
2017-04-27T14:38:44.619Z,14.94
2017-04-27T14:40:07.148Z,14.96
2017-04-27T14:41:29.360Z,14.81
2017-04-27T14:42:51.909Z,14.72
2017-04-27T14:44:14.419Z,14.65
2017-04-27T14:45:37.007Z,14.68
2017-04-27T14:46:59.653Z,14.7
2017-04-27T14:48:22.085Z,14.73
2017-04-27T14:49:44.492Z,14.72
2017-04-27T14:51:07.080Z,14.65
2017-04-27T14:52:29.588Z,14.61
2017-04-27T14:53:52.347Z,14.57
2017-04-27T14:55:14.541Z,14.36
2017-04-27T14:56:37.057Z,14.35
2017-04-27T14:57:58.985Z,14.39
2017-04-27T14:59:20.462Z,14.37
2017-04-27T15:00:42.738Z,14.36
2017-04-27T15:02:04.588Z,14.39
2017-04-27T15:03:27.187Z,14.25
2017-04-27T15:04:49.990Z,14.28
2017-04-27T15:06:12.562Z,14.18
2017-04-27T15:07:34.753Z,14.04
2017-04-27T15:08:57.257Z,13.77
2017-04-27T15:10:19.987Z,13.77
2017-04-27T15:11:42.601Z,13.81
2017-04-27T15:13:05.108Z,13.88
2017-04-27T15:14:27.373Z,13.73
2017-04-27T15:15:49.548Z,13.52
2017-04-27T15:17:11.287Z,13.39
2017-04-27T15:18:33.270Z,13.3
2017-04-27T15:19:55.777Z,13.33
2017-04-27T15:21:18.364Z,13.3
2017-04-27T15:22:39.886Z,13.22
2017-04-27T15:24:02.095Z,13.03
2017-04-27T15:25:24.260Z,13.04
2017-04-27T15:26:46.799Z,12.89
2017-04-27T15:28:08.390Z,12.83
2017-04-27T15:29:30.947Z,12.77
2017-04-27T15:30:53.096Z,12.79
2017-04-27T15:32:15.797Z,12.6
2017-04-27T15:33:37.961Z,12.5
2017-04-27T15:35:00.553Z,12.46
2017-04-27T15:36:23.117Z,12.31
2017-04-27T15:37:45.920Z,12.35
2017-04-27T15:39:08.500Z,12.34
2017-04-27T15:40:30.768Z,12.27
2017-04-27T15:41:52.981Z,12.21
2017-04-27T15:43:15.915Z,12.14
2017-04-27T15:44:37.751Z,12.01
2017-04-27T15:46:00.242Z,11.9
2017-04-27T15:47:22.409Z,11.8
2017-04-27T15:48:45.258Z,11.75
2017-04-27T15:50:07.452Z,11.62
2017-04-27T15:51:29.618Z,11.58
2017-04-27T15:52:51.784Z,11.47
2017-04-27T15:54:13.878Z,11.47
2017-04-27T15:55:36.149Z,11.47
2017-04-27T15:56:58.631Z,11.36
2017-04-27T15:58:21.337Z,11.36
2017-04-27T15:59:43.220Z,11.33
2017-04-27T16:01:05.418Z,11.28
2017-04-27T16:02:27.607Z,11.27
2017-04-27T16:03:50.095Z,11.25
2017-04-27T16:05:12.614Z,11.27
2017-04-27T16:06:34.813Z,11.25
2017-04-27T16:07:56.379Z,11.37
2017-04-27T16:09:18.869Z,11.37
2017-04-27T16:10:41.647Z,11.36
2017-04-27T16:12:04.161Z,11.33
2017-04-27T16:13:26.701Z,11.35
2017-04-27T16:14:48.865Z,11.37
2017-04-27T16:16:11.122Z,11.39
2017-04-27T16:17:33.375Z,11.33
2017-04-27T16:18:55.409Z,11.4
2017-04-27T16:20:17.580Z,11.35
2017-04-27T16:21:39.782Z,11.33
2017-04-27T16:23:02.300Z,11.32
2017-04-27T16:24:24.151Z,11.29
2017-04-27T16:25:46.335Z,11.35
2017-04-27T16:27:09.188Z,11.36
2017-04-27T16:28:31.676Z,11.43
2017-04-27T16:29:53.542Z,11.52
2017-04-27T16:31:16.101Z,11.65
2017-04-27T16:32:38.590Z,11.7
2017-04-27T16:34:00.858Z,11.69
2017-04-27T16:35:23.130Z,11.67
2017-04-27T16:36:45.336Z,11.65
2017-04-27T16:38:08.209Z,11.61
2017-04-27T16:39:30.407Z,11.83
2017-04-27T16:40:52.588Z,11.9
2017-04-27T16:42:14.753Z,11.94
2017-04-27T16:43:37.479Z,12.02
2017-04-27T16:44:59.687Z,12.19
2017-04-27T16:46:22.457Z,12.32
2017-04-27T16:47:44.668Z,12.32
2017-04-27T16:49:07.505Z,12.59
2017-04-27T16:50:30.039Z,12.53
2017-04-27T16:51:52.309Z,12.52
2017-04-27T16:53:14.837Z,12.52
2017-04-27T16:54:37.008Z,12.53
2017-04-27T16:55:59.206Z,12.39
2017-04-27T16:57:21.369Z,12.41
2017-04-27T16:58:43.563Z,12.21
2017-04-27T17:00:06.380Z,12.01
2017-04-27T17:01:28.234Z,11.78
2017-04-27T17:02:50.731Z,11.64
2017-04-27T17:04:13.226Z,11.36
2017-04-27T17:05:36.024Z,11.28
2017-04-27T17:06:58.753Z,11.35
2017-04-27T17:08:20.951Z,11.24
2017-04-27T17:09:43.449Z,11.18
2017-04-27T17:11:06.399Z,11.21
2017-04-27T17:12:28.570Z,11.09
2017-04-27T17:13:51.093Z,11.07
2017-04-27T17:15:13.307Z,11.06
2017-04-27T17:16:35.905Z,10.96
2017-04-27T17:17:58.429Z,10.96
2017-04-27T17:19:20.701Z,10.99
2017-04-27T17:20:43.273Z,11
2017-04-27T17:22:06.045Z,10.99
2017-04-27T17:23:27.910Z,10.97
2017-04-27T17:24:50.216Z,11.04
2017-04-27T17:26:12.471Z,11.04
2017-04-27T17:27:34.979Z,10.99
2017-04-27T17:28:57.299Z,10.88
2017-04-27T17:30:19.905Z,10.96
2017-04-27T17:31:42.089Z,10.99
2017-04-27T17:33:04.843Z,10.97
2017-04-27T17:34:27.362Z,10.99
2017-04-27T17:35:49.871Z,10.96
2017-04-27T17:37:12.372Z,10.96
2017-04-27T17:38:34.848Z,10.92
2017-04-27T17:39:57.025Z,10.88
2017-04-27T17:41:19.553Z,10.89
2017-04-27T17:42:42.120Z,11.02
2017-04-27T17:44:04.914Z,10.96
2017-04-27T17:45:26.908Z,10.99
2017-04-27T17:46:49.120Z,11
2017-04-27T17:48:11.292Z,11.04
2017-04-27T17:49:33.811Z,11.06